Time;durP1;ratioP1;P1;durP2;ratioP2;P2;SDS_P1;SDS_P2;PMS_P1;PMS_P2;Temp;Humidity;BMP_temperature;BMP_pressure;BME280_temperature;BME280_humidity;BME280_pressure;Samples;Min_cycle;Max_cycle;Signal;HPM_P1;HPM_P2
2021/06/22 06:27:36;;;;;;;8.63;4.45;;;18.70;99.90;;;;;;1500593;23;20232;-89
2021/06/22 06:33:10;;;;;;;7.35;3.45;;;19.00;99.90;;;;;;1207810;23;20184;-87
2021/06/22 06:36:03;;;;;;;4.60;3.13;;;18.90;99.90;;;;;;1197749;23;21457;-90
2021/06/22 07:02:02;;;;;;;9.35;2.80;;;19.50;99.90;;;;;;2252646;23;21493;-87
2021/06/22 07:05:03;;;;;;;4.85;2.65;;;19.70;99.90;;;;;;1201985;23;20299;-89
2021/06/22 07:31:10;;;;;;;5.00;1.77;;;19.70;99.90;;;;;;3519416;40;20037;-88
2021/06/22 07:36:37;;;;;;;3.58;1.83;;;19.60;99.90;;;;;;3541909;40;20053;-86
2021/06/22 07:39:05;;;;;;;3.85;2.10;;;19.50;99.90;;;;;;3517067;40;20370;-87
2021/06/22 07:44:15;;;;;;;8.70;2.72;;;19.50;99.90;;;;;;3076252;23;20030;-83
2021/06/22 07:46:47;;;;;;;5.50;2.10;;;19.60;99.90;;;;;;3719845;23;20046;-89
2021/06/22 07:49:15;;;;;;;7.07;4.05;;;19.50;99.90;;;;;;3763629;23;20269;-78
2021/06/22 07:51:50;;;;;;;3.67;2.47;;;19.60;99.90;;;;;;3633211;23;20034;-87
2021/06/22 07:54:43;;;;;;;6.03;3.38;;;19.50;99.90;;;;;;3610155;23;20079;-88
2021/06/22 08:00:25;;;;;;;3.67;2.70;;;19.70;99.90;;;;;;3657385;23;20031;-88
2021/06/22 08:02:55;;;;;;;4.93;2.58;;;19.80;99.90;;;;;;3537021;40;20046;-87
2021/06/22 08:08:08;;;;;;;6.70;2.92;;;19.80;99.90;;;;;;3572126;40;20381;-89
2021/06/22 08:13:52;;;;;;;11.93;3.25;;;19.80;99.90;;;;;;3623051;23;20126;-88
2021/06/22 08:16:26;;;;;;;12.45;3.25;;;19.90;99.90;;;;;;3616470;23;20451;31
2021/06/22 08:18:55;;;;;;;11.02;2.80;;;19.90;99.90;;;;;;3567924;23;20065;-89
2021/06/22 08:21:25;;;;;;;50.95;5.38;;;19.90;99.90;;;;;;3571319;23;20051;-86
2021/06/22 08:29:27;;;;;;;17.17;2.97;;;19.90;99.90;;;;;;3662975;23;20327;-87
2021/06/22 08:32:05;;;;;;;6.28;2.30;;;20.00;99.90;;;;;;3769039;23;20801;-90
2021/06/22 08:34:49;;;;;;;13.93;3.13;;;19.90;99.90;;;;;;3623095;23;20050;-86
2021/06/22 08:37:44;;;;;;;16.10;3.15;;;19.80;99.90;;;;;;3545297;40;20055;-89
2021/06/22 08:40:13;;;;;;;10.02;3.38;;;19.80;99.90;;;;;;3545671;40;20042;-87
2021/06/22 08:42:42;;;;;;;17.10;5.05;;;19.80;99.90;;;;;;3532611;40;20085;-87
2021/06/22 08:53:58;;;;;;;8.15;5.20;;;19.80;99.90;;;;;;3560578;40;20047;-88
2021/06/22 08:56:39;;;;;;;7.13;4.47;;;19.80;99.90;;;;;;3541744;40;20082;-88
2021/06/22 08:59:07;;;;;;;8.48;4.13;;;19.80;99.90;;;;;;3535165;40;20095;-85
2021/06/22 09:01:35;;;;;;;7.55;3.58;;;19.90;99.90;;;;;;3551033;40;20042;-87
2021/06/22 09:04:08;;;;;;;6.27;3.90;;;20.10;99.90;;;;;;3550897;40;20044;-86
2021/06/22 09:06:42;;;;;;;5.53;3.70;;;20.30;99.90;;;;;;3544413;40;20034;-86
2021/06/22 09:09:12;;;;;;;8.00;3.88;;;20.30;99.90;;;;;;3544792;40;20057;-87
2021/06/22 09:11:42;;;;;;;7.75;3.83;;;20.40;99.90;;;;;;3560911;40;20050;-90
2021/06/22 09:14:13;;;;;;;10.13;4.32;;;20.60;99.90;;;;;;3552204;40;20061;-87
2021/06/22 09:16:42;;;;;;;13.73;4.10;;;20.70;99.90;;;;;;3538290;40;20061;-86
2021/06/22 09:19:12;;;;;;;14.80;4.88;;;20.80;99.90;;;;;;3540676;40;20048;-86
2021/06/22 09:21:43;;;;;;;8.95;3.85;;;21.20;99.90;;;;;;3546289;40;20039;-88
2021/06/22 09:24:19;;;;;;;11.50;5.28;;;21.40;99.90;;;;;;3535214;40;20062;-88
2021/06/22 09:26:50;;;;;;;9.25;3.92;;;21.50;99.80;;;;;;3527394;40;20095;-86
2021/06/22 09:29:23;;;;;;;9.75;3.40;;;21.60;99.60;;;;;;3538790;40;20472;-88
2021/06/22 09:31:55;;;;;;;10.98;3.92;;;21.60;99.30;;;;;;3533222;40;20621;-85
2021/06/22 09:34:27;;;;;;;6.15;3.67;;;21.70;99.20;;;;;;3534304;40;20034;-84
2021/06/22 09:36:57;;;;;;;4.72;3.00;;;21.60;98.90;;;;;;3616874;23;20086;-86
2021/06/22 09:42:19;;;;;;;;;;;21.30;98.90;;;;;;3608000;23;20026;-88
2021/06/22 09:45:18;;;;;;;6.53;3.40;;;21.10;99.50;;;;;;3584926;23;19948;-89
2021/06/22 09:50:39;;;;;;;5.88;3.03;;;21.00;99.90;;;;;;4020363;23;20094;-87
2021/06/22 09:53:29;;;;;;;5.53;3.20;;;21.00;99.90;;;;;;3551244;40;20109;-86
2021/06/22 09:55:58;;;;;;;6.93;3.40;;;21.10;99.70;;;;;;3541472;40;20034;-85
2021/06/22 09:58:42;;;;;;;4.47;2.80;;;21.10;99.60;;;;;;3544593;40;20310;-87
2021/06/22 10:01:27;;;;;;;6.63;3.50;;;21.20;99.50;;;;;;3534690;40;20141;-87
2021/06/22 10:03:56;;;;;;;5.55;2.90;;;21.60;98.70;;;;;;3549718;40;20070;-84
2021/06/22 10:06:23;;;;;;;6.63;3.17;;;21.90;98.30;;;;;;3547591;40;20063;-83
2021/06/22 10:08:54;;;;;;;4.83;3.00;;;22.30;97.30;;;;;;3544415;40;20070;-83
2021/06/22 10:11:36;;;;;;;6.63;2.58;;;22.60;95.70;;;;;;3538591;40;20071;-83
2021/06/22 10:14:26;;;;;;;9.23;4.88;;;23.10;94.90;;;;;;3541822;40;20087;-84
2021/06/22 10:16:56;;;;;;;6.75;3.38;;;23.60;93.00;;;;;;3550143;40;20071;-84
2021/06/22 10:19:24;;;;;;;4.00;3.05;;;23.60;91.60;;;;;;3552934;40;20070;-85
2021/06/22 10:21:53;;;;;;;6.78;2.80;;;23.50;91.90;;;;;;3533538;40;20086;-86
2021/06/22 10:24:20;;;;;;;;;;;23.30;92.30;;;;;;3538173;40;20122;-81
2021/06/22 10:26:49;;;;;;;4.65;3.03;;;23.10;92.30;;;;;;3533933;40;19973;-81
2021/06/22 10:29:18;;;;;;;;;;;22.90;92.20;;;;;;3553243;40;20090;-82
2021/06/22 10:31:49;;;;;;;7.45;2.92;;;22.50;92.90;;;;;;3538350;40;19982;-82
2021/06/22 10:34:20;;;;;;;9.80;3.78;;;22.30;93.90;;;;;;3553431;40;20043;-84
2021/06/22 10:36:58;;;;;;;6.13;3.25;;;22.00;94.70;;;;;;3543961;40;20059;-88
2021/06/22 10:39:31;;;;;;;10.05;3.90;;;21.70;95.00;;;;;;3538361;40;20395;-85
2021/06/22 10:42:09;;;;;;;9.85;3.63;;;21.70;94.90;;;;;;3542344;40;20066;-86
2021/06/22 10:44:47;;;;;;;7.75;4.80;;;21.70;95.20;;;;;;3538822;40;20086;-83
2021/06/22 10:47:28;;;;;;;;;;;21.70;95.10;;;;;;3550703;40;20113;-83
2021/06/22 10:50:15;;;;;;;8.50;3.30;;;21.80;94.90;;;;;;3535098;40;19970;-84
2021/06/22 10:52:51;;;;;;;11.35;4.25;;;21.70;95.00;;;;;;3555045;40;20035;-83
2021/06/22 10:55:23;;;;;;;9.85;3.55;;;21.70;95.20;;;;;;3530675;40;20083;-83
2021/06/22 10:58:11;;;;;;;8.98;3.53;;;21.60;95.50;;;;;;3534808;40;20071;-86
2021/06/22 11:01:08;;;;;;;4.60;3.33;;;21.60;95.70;;;;;;3528472;40;20059;-85
2021/06/22 11:03:37;;;;;;;9.82;3.95;;;21.80;95.40;;;;;;3540724;40;20045;-84
2021/06/22 11:06:26;;;;;;;6.40;4.03;;;22.10;94.80;;;;;;3539411;40;20074;-84
2021/06/22 11:08:54;;;;;;;5.15;2.90;;;22.50;93.60;;;;;;3537469;40;20079;-83
2021/06/22 11:11:25;;;;;;;6.53;2.88;;;22.60;92.70;;;;;;3533288;40;20298;-85
2021/06/22 11:13:57;;;;;;;6.15;2.92;;;22.60;92.70;;;;;;3549062;40;20070;-84
2021/06/22 11:16:31;;;;;;;5.60;2.92;;;22.60;92.00;;;;;;3529195;40;20071;-84
2021/06/22 11:19:12;;;;;;;4.68;2.95;;;22.50;92.00;;;;;;3541608;40;20038;-86
2021/06/22 11:21:55;;;;;;;4.00;2.83;;;22.50;91.60;;;;;;3519918;40;20070;-85
2021/06/22 11:24:28;;;;;;;5.28;3.10;;;22.40;91.40;;;;;;3538922;40;20072;-82
2021/06/22 11:27:11;;;;;;;10.20;4.13;;;22.50;91.10;;;;;;3542855;40;20086;-83
2021/06/22 11:29:55;;;;;;;5.63;2.78;;;22.50;90.90;;;;;;3545533;40;20406;-89
2021/06/22 11:32:37;;;;;;;6.95;3.20;;;22.50;91.00;;;;;;3541559;40;20030;-86
2021/06/22 11:35:14;;;;;;;7.50;2.80;;;22.40;90.70;;;;;;3542835;40;20066;-87
2021/06/22 11:37:48;;;;;;;4.93;3.10;;;22.20;91.10;;;;;;3539969;40;20336;-87
2021/06/22 11:40:21;;;;;;;4.40;3.10;;;22.20;91.50;;;;;;3542242;40;20065;-88
2021/06/22 11:43:09;;;;;;;7.30;3.33;;;22.40;91.30;;;;;;3536210;40;20058;-85
2021/06/22 11:45:39;;;;;;;7.38;3.50;;;22.50;90.70;;;;;;3531073;40;20086;-86
2021/06/22 11:48:08;;;;;;;4.82;3.03;;;22.70;90.60;;;;;;3540625;40;20077;-87
2021/06/22 11:50:51;;;;;;;4.63;3.10;;;23.20;89.80;;;;;;3537310;40;20089;-87
2021/06/22 11:53:51;;;;;;;7.13;2.63;;;23.70;87.40;;;;;;3552638;40;20059;-86
2021/06/22 11:56:19;;;;;;;4.10;1.98;;;24.80;82.50;;;;;;3549455;40;20345;-85
2021/06/22 11:58:48;;;;;;;8.90;2.50;;;25.60;78.70;;;;;;3534361;40;20101;-84
2021/06/22 12:01:19;;;;;;;3.90;2.60;;;25.90;75.20;;;;;;3542970;40;20090;-85
2021/06/22 12:03:54;;;;;;;6.43;2.65;;;26.10;74.20;;;;;;3535813;40;20417;-84
2021/06/22 12:06:25;;;;;;;3.08;2.20;;;26.20;72.80;;;;;;3544275;40;20055;-84
2021/06/22 12:08:54;;;;;;;5.72;2.40;;;26.50;71.30;;;;;;3536612;40;20394;-83
2021/06/22 12:11:29;;;;;;;8.80;2.88;;;26.80;70.60;;;;;;3553227;40;20074;-84
2021/06/22 12:13:57;;;;;;;8.60;2.38;;;26.90;69.80;;;;;;3536451;40;20130;-86
2021/06/22 12:17:27;;;;;;;4.28;2.30;;;27.00;68.60;;;;;;3547601;40;20103;-85
2021/06/22 12:19:55;;;;;;;3.53;2.22;;;27.70;66.50;;;;;;3496173;40;20490;-84
2021/06/22 12:22:25;;;;;;;3.13;1.83;;;28.40;64.90;;;;;;3518125;40;20120;-83
2021/06/22 12:24:52;;;;;;;4.38;2.13;;;29.60;61.60;;;;;;3509492;40;20085;-84
2021/06/22 12:27:21;;;;;;;;;;;31.60;57.00;;;;;;3514058;40;20095;-84
2021/06/22 12:29:59;;;;;;;;;;;31.80;54.40;;;;;;3516981;40;19970;-86
2021/06/22 12:32:36;;;;;;;4.38;2.10;;;30.80;54.30;;;;;;3525322;40;19982;-85
2021/06/22 12:35:28;;;;;;;3.88;2.25;;;29.40;55.90;;;;;;3521669;40;20140;-85
2021/06/22 12:38:09;;;;;;;4.05;2.20;;;27.80;59.30;;;;;;3515260;40;20058;-86
2021/06/22 12:40:45;;;;;;;3.50;2.42;;;26.70;61.90;;;;;;3523522;40;20036;-85
2021/06/22 12:43:16;;;;;;;3.25;2.25;;;26.20;62.80;;;;;;3520155;40;20351;-84
2021/06/22 12:45:46;;;;;;;4.25;2.45;;;25.90;64.60;;;;;;3497182;41;20065;-85
2021/06/22 12:48:26;;;;;;;3.22;2.30;;;25.90;64.50;;;;;;3514831;40;20092;-83
2021/06/22 12:50:59;;;;;;;4.60;2.60;;;25.70;65.40;;;;;;3503491;40;20098;-83
2021/06/22 12:53:30;;;;;;;4.68;2.50;;;25.70;66.20;;;;;;3535013;40;20067;-84
2021/06/22 12:56:10;;;;;;;3.70;2.30;;;25.80;65.00;;;;;;3536508;40;20094;-84
2021/06/22 12:58:46;;;;;;;6.20;2.15;;;26.30;64.40;;;;;;3541782;40;20070;-85
2021/06/22 13:01:35;;;;;;;4.70;2.08;;;26.70;62.90;;;;;;3535154;40;20090;-84
2021/06/22 13:04:11;;;;;;;4.45;2.15;;;27.00;62.20;;;;;;3546569;40;20087;-85
2021/06/22 13:06:41;;;;;;;2.50;1.63;;;27.60;61.10;;;;;;3539853;40;20082;-87
2021/06/22 13:09:16;;;;;;;5.75;1.58;;;27.60;60.10;;;;;;3551297;40;20070;-85
2021/06/22 13:11:52;;;;;;;3.25;2.03;;;27.70;59.80;;;;;;3552556;40;20082;-84
2021/06/22 13:14:24;;;;;;;5.88;2.38;;;27.50;60.10;;;;;;3548744;40;20078;-86
2021/06/22 13:17:04;;;;;;;3.50;1.63;;;27.20;61.00;;;;;;3520114;40;20083;-84
2021/06/22 13:19:41;;;;;;;5.90;1.80;;;26.70;61.80;;;;;;3536888;40;20055;-87
2021/06/22 13:22:09;;;;;;;2.97;1.88;;;26.60;62.30;;;;;;3542368;40;20042;-87
2021/06/22 13:24:53;;;;;;;;;;;26.70;62.00;;;;;;3550899;40;20069;-85
2021/06/22 13:27:32;;;;;;;4.93;2.20;;;26.70;62.40;;;;;;3541195;40;19950;-86
2021/06/22 13:30:03;;;;;;;3.28;1.65;;;26.80;62.10;;;;;;3552616;40;20042;-86
2021/06/22 13:32:42;;;;;;;3.40;1.60;;;27.20;60.70;;;;;;3624890;23;20047;-81
2021/06/22 13:38:01;;;;;;;4.78;1.73;;;28.50;60.20;;;;;;3571853;40;20212;-85
2021/06/22 13:40:32;;;;;;;2.80;0.90;;;30.70;55.80;;;;;;3564171;40;20340;-85
2021/06/22 13:43:13;;;;;;;2.88;1.27;;;30.80;54.20;;;;;;3564163;40;20022;-86
2021/06/22 13:45:44;;;;;;;7.35;1.70;;;30.30;54.90;;;;;;3555805;40;20329;-86
2021/06/22 13:48:24;;;;;;;1.83;1.20;;;29.40;56.00;;;;;;3563943;40;20045;-86
2021/06/22 13:50:59;;;;;;;1.90;1.23;;;28.60;57.30;;;;;;3550287;40;20031;-87
2021/06/22 13:53:32;;;;;;;5.27;1.77;;;27.70;59.00;;;;;;3554915;40;20035;-87
2021/06/22 13:56:32;;;;;;;4.65;1.38;;;27.10;60.20;;;;;;3628496;23;20065;-87
2021/06/22 13:59:00;;;;;;;4.45;1.60;;;26.60;62.00;;;;;;3552633;40;20158;-86
2021/06/22 14:01:32;;;;;;;2.80;1.40;;;26.30;62.70;;;;;;3616089;23;20066;-86
2021/06/22 14:04:01;;;;;;;3.35;1.20;;;26.20;63.30;;;;;;3528109;40;20040;-86
2021/06/22 14:06:59;;;;;;;5.63;1.90;;;26.00;64.20;;;;;;3542906;40;20042;-82
2021/06/22 14:09:31;;;;;;;3.22;1.75;;;25.90;64.70;;;;;;3525514;40;20050;-84
2021/06/22 14:12:03;;;;;;;3.70;1.75;;;25.70;65.20;;;;;;3538342;40;20644;-87
2021/06/22 14:14:35;;;;;;;3.08;1.48;;;25.40;65.90;;;;;;3547035;40;20057;-86
2021/06/22 14:17:05;;;;;;;3.70;1.80;;;25.20;66.80;;;;;;3525592;40;20043;-86
2021/06/22 14:19:32;;;;;;;3.28;1.45;;;25.00;67.20;;;;;;3525577;40;20035;-85
2021/06/22 14:22:00;;;;;;;2.78;1.70;;;24.90;67.90;;;;;;3531115;40;20070;-85
2021/06/22 14:24:29;;;;;;;3.28;1.30;;;24.80;67.80;;;;;;3541577;40;20050;-85
2021/06/22 14:27:03;;;;;;;2.67;1.35;;;24.80;68.00;;;;;;3531523;40;20067;-83
2021/06/22 14:29:31;;;;;;;7.38;2.55;;;25.00;68.20;;;;;;3519316;40;20415;-85
2021/06/22 14:32:01;;;;;;;6.65;2.53;;;25.20;67.70;;;;;;3540355;40;20091;-85
2021/06/22 14:34:30;;;;;;;3.45;1.40;;;25.40;67.30;;;;;;3615779;23;20059;-86
2021/06/22 14:43:13;;;;;;;3.88;1.40;;;26.00;65.10;;;;;;3655335;23;20067;-82
2021/06/22 14:45:42;;;;;;;5.72;1.48;;;25.90;65.60;;;;;;3650043;23;20055;-86
2021/06/22 14:48:10;;;;;;;3.22;1.55;;;25.50;65.10;;;;;;3544633;40;20091;-84
2021/06/22 14:50:45;;;;;;;3.08;1.60;;;25.30;66.70;;;;;;3613789;23;20079;-89
2021/06/22 14:59:07;;;;;;;2.15;1.27;;;24.40;68.50;;;;;;3558779;40;20050;-86
2021/06/22 15:01:39;;;;;;;5.93;1.42;;;24.30;69.60;;;;;;3556110;40;20054;-86
2021/06/22 15:04:11;;;;;;;3.38;1.20;;;24.20;70.40;;;;;;3543546;40;20062;-86
2021/06/22 15:06:41;;;;;;;2.80;1.10;;;24.10;70.20;;;;;;3561160;40;20027;-86
2021/06/22 15:09:09;;;;;;;4.28;1.40;;;23.90;71.10;;;;;;3552635;40;20045;-89
2021/06/22 15:11:37;;;;;;;3.53;1.25;;;23.90;71.60;;;;;;3544099;40;20066;-88
2021/06/22 15:14:13;;;;;;;4.05;1.40;;;23.90;70.70;;;;;;3542918;40;20051;-86
2021/06/22 15:16:41;;;;;;;2.58;1.40;;;23.90;71.10;;;;;;3543597;40;20023;-87
2021/06/22 15:19:14;;;;;;;5.03;2.47;;;24.10;71.70;;;;;;3553037;40;20115;-86
2021/06/22 15:24:58;;;;;;;5.25;1.55;;;24.20;72.20;;;;;;3560483;40;20026;-85
2021/06/22 15:30:12;;;;;;;5.03;2.15;;;24.10;71.30;;;;;;3557727;40;19948;-83
2021/06/22 15:32:42;;;;;;;7.68;1.90;;;24.00;71.50;;;;;;3545163;40;20453;-87
2021/06/22 15:35:34;;;;;;;2.83;1.50;;;24.00;71.00;;;;;;3557581;40;20037;-87
2021/06/22 15:38:04;;;;;;;8.55;1.50;;;24.00;71.20;;;;;;3967947;23;20093;-82
2021/06/22 15:40:53;;;;;;;3.10;1.30;;;24.00;71.80;;;;;;2815642;23;20182;-86
2021/06/22 15:43:26;;;;;;;2.97;1.40;;;24.00;71.90;;;;;;3554959;40;20062;-86
2021/06/22 15:45:56;;;;;;;3.38;1.45;;;24.10;71.70;;;;;;3535288;40;20042;-87
2021/06/22 15:48:26;;;;;;;4.65;1.40;;;24.00;71.80;;;;;;3544249;40;20047;-86
2021/06/22 15:50:55;;;;;;;2.72;1.30;;;24.00;71.40;;;;;;3543945;40;20038;-87
2021/06/22 15:56:05;;;;;;;6.75;1.50;;;23.80;71.40;;;;;;3714650;23;20031;-89
2021/06/22 15:59:07;;;;;;;1.98;1.00;;;23.80;70.90;;;;;;3836348;23;20096;-88
2021/06/22 16:01:49;;;;;;;3.63;1.15;;;23.70;71.10;;;;;;3677617;23;20082;-82
2021/06/22 16:07:13;;;;;;;2.08;1.10;;;23.70;71.30;;;;;;3931203;23;20067;-84
2021/06/22 16:09:49;;;;;;;3.15;1.25;;;23.80;71.10;;;;;;3773102;23;20443;-85
2021/06/22 16:12:16;;;;;;;2.13;1.00;;;23.90;70.30;;;;;;3758438;23;20059;-85
2021/06/22 16:14:47;;;;;;;5.13;1.42;;;24.00;70.20;;;;;;3549425;40;20046;-86
2021/06/22 16:17:19;;;;;;;3.63;1.17;;;24.10;70.10;;;;;;3562150;40;20041;-84
2021/06/22 16:19:51;;;;;;;2.30;1.13;;;24.20;69.90;;;;;;3544243;40;20066;-88
2021/06/22 16:22:28;;;;;;;2.08;1.20;;;24.20;69.90;;;;;;3612236;23;20321;-85
2021/06/22 16:24:56;;;;;;;7.35;2.22;;;24.10;70.30;;;;;;3550089;40;20318;-84
2021/06/22 16:27:24;;;;;;;1.95;1.10;;;23.90;70.70;;;;;;3545948;40;20074;-84
2021/06/22 16:29:52;;;;;;;5.80;1.38;;;23.90;69.50;;;;;;3544840;40;20082;-82
2021/06/22 16:32:21;;;;;;;4.00;0.93;;;24.20;69.30;;;;;;3538102;40;20094;-82
2021/06/22 16:34:49;;;;;;;3.33;1.40;;;24.50;68.60;;;;;;3544915;40;20330;-85
2021/06/22 16:37:17;;;;;;;3.13;1.60;;;24.80;68.10;;;;;;3538025;40;20083;-83
2021/06/22 16:39:47;;;;;;;4.13;1.40;;;25.10;67.50;;;;;;3541104;40;20075;-85
2021/06/22 16:42:15;;;;;;;3.08;1.30;;;25.30;66.90;;;;;;3540652;40;20078;-84
2021/06/22 16:44:43;;;;;;;4.80;1.45;;;25.30;66.40;;;;;;3533194;40;20319;-83
2021/06/22 16:47:11;;;;;;;2.25;1.00;;;25.10;66.40;;;;;;3528701;40;20078;-84
2021/06/22 16:49:46;;;;;;;4.03;1.90;;;24.90;67.10;;;;;;3547292;40;20094;-83
2021/06/22 16:52:14;;;;;;;6.85;1.40;;;24.50;68.40;;;;;;3530607;40;20074;-82
2021/06/22 16:54:42;;;;;;;3.25;1.20;;;24.30;69.20;;;;;;3534776;40;20083;-84
2021/06/22 16:57:10;;;;;;;1.87;1.10;;;24.20;69.40;;;;;;3547670;40;20110;-83
2021/06/22 16:59:38;;;;;;;3.08;0.93;;;25.00;68.20;;;;;;3523865;40;20330;-83
2021/06/22 17:02:06;;;;;;;2.87;0.90;;;25.90;65.20;;;;;;3541238;40;20059;-85
2021/06/22 17:04:33;;;;;;;3.55;1.30;;;26.80;63.30;;;;;;3539536;40;20341;-85
2021/06/22 17:07:06;;;;;;;2.60;0.98;;;28.20;60.80;;;;;;3529416;40;20075;-84
2021/06/22 17:09:33;;;;;;;2.65;1.42;;;29.50;58.20;;;;;;3549069;40;20066;-84
2021/06/22 17:12:04;;;;;;;3.80;1.13;;;29.70;56.50;;;;;;3540213;40;20098;-84
2021/06/22 17:14:32;;;;;;;2.08;1.15;;;29.20;57.20;;;;;;3533950;40;20406;-84
2021/06/22 17:17:02;;;;;;;2.20;1.10;;;28.30;58.10;;;;;;3544534;40;20079;-85
2021/06/22 17:19:30;;;;;;;3.95;1.10;;;27.50;59.40;;;;;;3546972;40;20309;-84
2021/06/22 17:21:58;;;;;;;5.30;1.80;;;26.60;61.50;;;;;;3512551;40;1236847;-85
2021/06/22 17:24:29;;;;;;;1.92;0.90;;;25.90;63.20;;;;;;3527235;40;20315;-85
2021/06/22 17:26:58;;;;;;;4.45;1.20;;;25.30;64.60;;;;;;3535923;40;20071;-84
2021/06/22 17:29:30;;;;;;;3.22;1.17;;;24.80;66.00;;;;;;3535662;40;20075;-84
2021/06/22 17:32:01;;;;;;;5.25;1.65;;;24.30;67.30;;;;;;3525352;40;20125;-84
2021/06/22 17:34:31;;;;;;;2.40;1.20;;;24.10;68.40;;;;;;3520006;40;20070;-84
2021/06/22 17:36:59;;;;;;;2.45;1.00;;;23.90;69.10;;;;;;3532830;40;20155;-84
2021/06/22 17:39:28;;;;;;;4.40;2.20;;;23.90;69.00;;;;;;3516081;40;20060;-86
2021/06/22 17:41:56;;;;;;;3.55;1.50;;;23.90;69.20;;;;;;3527265;40;20079;-82
2021/06/22 17:44:24;;;;;;;4.63;1.40;;;23.70;69.80;;;;;;3510220;40;20063;-86
2021/06/22 17:46:54;;;;;;;6.13;2.38;;;23.40;70.90;;;;;;3517806;40;20071;-85
2021/06/22 17:49:24;;;;;;;4.20;1.52;;;23.30;71.70;;;;;;3526445;40;20138;-84
2021/06/22 17:51:52;;;;;;;4.60;2.10;;;23.10;72.30;;;;;;3521246;40;20059;-85
2021/06/22 17:54:20;;;;;;;3.47;1.40;;;23.00;73.10;;;;;;3533635;40;20074;-86
2021/06/22 17:56:52;;;;;;;2.05;1.15;;;22.80;73.60;;;;;;3531914;40;20370;-86
2021/06/22 17:59:20;;;;;;;4.13;1.60;;;22.70;74.00;;;;;;3529122;40;20074;-85
2021/06/22 18:01:50;;;;;;;2.53;1.35;;;22.60;74.80;;;;;;3528599;40;20075;-87
2021/06/22 18:04:19;;;;;;;4.75;1.30;;;22.40;75.40;;;;;;3536350;40;20076;-85
2021/06/22 18:06:47;;;;;;;2.85;1.05;;;22.20;75.60;;;;;;3519149;40;20087;-85
2021/06/22 18:09:17;;;;;;;2.63;1.40;;;22.20;76.10;;;;;;3528215;40;20334;-85
2021/06/22 18:11:45;;;;;;;3.58;1.30;;;22.00;77.00;;;;;;3521641;40;20203;-85
2021/06/22 18:14:17;;;;;;;2.85;1.15;;;21.90;77.50;;;;;;3526119;40;20071;-85
2021/06/22 18:16:50;;;;;;;3.58;1.40;;;21.90;78.10;;;;;;3526832;40;20064;-85
2021/06/22 18:19:36;;;;;;;3.58;1.10;;;21.90;78.00;;;;;;3535680;40;20055;-86
2021/06/22 18:22:16;;;;;;;2.90;1.38;;;21.90;78.20;;;;;;3535369;40;20058;-84
2021/06/22 18:24:45;;;;;;;9.13;1.33;;;21.80;78.80;;;;;;3543726;40;20038;-88
2021/06/22 18:27:14;;;;;;;6.15;1.80;;;21.70;78.80;;;;;;3535620;40;20046;-86
2021/06/22 18:29:44;;;;;;;4.88;1.90;;;21.60;79.80;;;;;;3543869;40;20035;-87
2021/06/22 18:32:12;;;;;;;4.50;1.65;;;21.40;80.90;;;;;;3535801;40;20042;-87
2021/06/22 18:35:06;;;;;;;;;;;21.40;81.50;;;;;;3780679;23;20067;-84
2021/06/22 18:52:45;;;;;;;3.25;1.35;;;21.40;83.20;;;;;;3636455;23;20042;-88
2021/06/22 19:00:59;;;;;;;4.70;1.52;;;21.10;86.60;;;;;;3567073;40;20083;-85
2021/06/22 19:03:27;;;;;;;5.10;1.60;;;21.00;86.70;;;;;;3550320;40;20078;-87
2021/06/22 19:05:56;;;;;;;3.55;1.50;;;21.00;87.20;;;;;;3550185;40;20386;-86
2021/06/22 19:08:25;;;;;;;2.70;1.60;;;21.10;87.00;;;;;;3539490;40;20292;-85
2021/06/22 19:10:54;;;;;;;;;;;20.90;87.60;;;;;;3557791;40;20397;-84
2021/06/22 19:13:25;;;;;;;3.95;1.67;;;20.90;88.50;;;;;;3558914;40;19961;-84
2021/06/22 19:15:56;;;;;;;3.38;1.40;;;20.80;89.20;;;;;;3530387;40;20090;-86
2021/06/22 19:18:26;;;;;;;4.63;1.60;;;20.80;89.90;;;;;;3542640;40;20074;-87
2021/06/22 19:20:54;;;;;;;2.90;1.77;;;20.90;89.90;;;;;;3538532;40;20343;-84
2021/06/22 19:23:22;;;;;;;3.38;1.38;;;20.90;89.80;;;;;;3541183;40;20063;-87
2021/06/22 19:25:50;;;;;;;5.22;2.00;;;20.90;90.30;;;;;;3527629;40;20125;-86
2021/06/22 19:28:18;;;;;;;5.87;1.70;;;20.90;90.30;;;;;;3537156;40;20079;-87
2021/06/22 19:30:47;;;;;;;2.77;1.47;;;20.90;90.50;;;;;;3533848;40;20038;-86
2021/06/22 19:33:17;;;;;;;3.70;1.33;;;20.70;90.80;;;;;;3531796;40;20086;-85
2021/06/22 19:35:46;;;;;;;6.53;1.80;;;20.80;91.10;;;;;;3532335;40;20097;-88
2021/06/22 19:38:15;;;;;;;2.47;1.25;;;20.80;91.10;;;;;;3550984;40;20075;-86
2021/06/22 19:40:46;;;;;;;3.13;1.38;;;20.80;90.90;;;;;;3536228;40;20085;-88
2021/06/22 19:43:15;;;;;;;;;;;20.70;90.90;;;;;;3540388;40;20078;-85
2021/06/22 19:45:46;;;;;;;5.97;1.98;;;20.60;91.60;;;;;;3535100;40;20220;-86
2021/06/22 19:48:16;;;;;;;7.82;2.60;;;20.60;92.20;;;;;;3530440;40;20086;-88
2021/06/22 19:50:45;;;;;;;7.72;2.58;;;20.60;92.30;;;;;;3559441;40;20049;-89
2021/06/22 19:53:14;;;;;;;10.98;3.25;;;20.70;91.60;;;;;;3542449;40;20070;-87
2021/06/22 19:55:43;;;;;;;7.38;2.55;;;20.80;91.30;;;;;;3524393;40;20070;-89
2021/06/22 19:58:11;;;;;;;6.72;2.95;;;20.70;91.50;;;;;;3541065;40;20115;-86
2021/06/22 20:00:40;;;;;;;8.30;2.83;;;20.50;92.00;;;;;;3543146;40;20078;-85
2021/06/22 20:03:08;;;;;;;6.50;2.72;;;20.50;92.40;;;;;;3541454;40;20097;-87
2021/06/22 20:05:36;;;;;;;7.60;2.95;;;20.20;93.20;;;;;;3545225;40;20315;-87
2021/06/22 20:08:05;;;;;;;8.20;2.90;;;20.00;94.00;;;;;;3530573;40;20067;-87
2021/06/22 20:10:36;;;;;;;;;;;19.90;94.50;;;;;;3508702;41;20053;-88
2021/06/22 20:13:05;;;;;;;9.27;3.60;;;19.80;95.50;;;;;;3516245;41;19986;-88
2021/06/22 20:15:39;;;;;;;5.65;2.67;;;19.80;95.70;;;;;;3508323;40;20084;-86
2021/06/22 20:18:10;;;;;;;6.55;3.10;;;19.70;96.40;;;;;;3506020;41;20065;-88
2021/06/22 20:20:40;;;;;;;9.15;3.08;;;19.60;97.20;;;;;;3516376;41;20091;-86
2021/06/22 20:23:08;;;;;;;8.63;3.90;;;19.50;97.80;;;;;;3503800;40;20147;-87
2021/06/22 20:25:38;;;;;;;10.55;3.20;;;19.40;98.60;;;;;;3504408;41;20117;-88
2021/06/22 20:28:06;;;;;;;7.88;3.20;;;19.30;99.30;;;;;;3509635;41;20096;-87
2021/06/22 20:30:37;;;;;;;8.15;3.35;;;19.30;99.70;;;;;;3498276;41;20087;-87
2021/06/22 20:33:07;;;;;;;8.68;3.85;;;19.30;99.90;;;;;;3507475;40;20104;-86
2021/06/22 20:35:37;;;;;;;6.03;2.90;;;19.10;99.90;;;;;;3508045;41;20192;-83
2021/06/22 20:38:08;;;;;;;12.48;3.60;;;19.10;99.90;;;;;;3507840;41;20076;-86
2021/06/22 20:40:39;;;;;;;10.98;3.38;;;19.10;99.90;;;;;;3507958;40;20076;-86
2021/06/22 20:43:15;;;;;;;9.20;3.50;;;19.10;99.90;;;;;;3532446;40;20127;-86
2021/06/22 20:45:46;;;;;;;7.68;3.20;;;19.10;99.90;;;;;;3552270;40;20090;-88
2021/06/22 20:48:17;;;;;;;10.05;3.10;;;19.00;99.90;;;;;;3543459;40;20070;-85
2021/06/22 20:50:47;;;;;;;5.75;3.00;;;19.00;99.90;;;;;;3548603;40;20062;-87
2021/06/22 20:53:15;;;;;;;7.53;3.30;;;18.90;99.90;;;;;;3549103;40;20081;-86
2021/06/22 20:55:46;;;;;;;5.18;3.40;;;19.00;99.90;;;;;;3525102;40;20078;-86
2021/06/22 20:58:14;;;;;;;7.93;3.28;;;19.00;99.90;;;;;;3556302;40;20082;-87
2021/06/22 21:00:43;;;;;;;7.93;3.20;;;18.90;99.90;;;;;;3543496;40;20102;-86
2021/06/22 21:03:12;;;;;;;8.25;3.22;;;18.90;99.90;;;;;;3544375;40;20086;-86
2021/06/22 21:05:42;;;;;;;8.10;3.38;;;18.80;99.90;;;;;;3541740;40;20062;-85
2021/06/22 21:08:12;;;;;;;10.68;3.17;;;18.70;99.90;;;;;;3547573;40;20078;-86
2021/06/22 21:10:45;;;;;;;6.82;3.00;;;18.60;99.90;;;;;;3549371;40;20091;-87
2021/06/22 21:13:13;;;;;;;10.45;3.47;;;18.50;99.90;;;;;;3555771;40;20078;-89
2021/06/22 21:15:41;;;;;;;6.38;3.22;;;18.40;99.90;;;;;;3548485;40;20061;-87
2021/06/22 21:18:10;;;;;;;8.23;3.65;;;18.40;99.90;;;;;;3548799;40;20086;-85
2021/06/22 21:20:38;;;;;;;11.43;3.28;;;18.40;99.90;;;;;;3544006;40;20404;-86
2021/06/22 21:23:05;;;;;;;8.00;3.67;;;18.30;99.90;;;;;;3543448;40;20071;-85
2021/06/22 21:25:33;;;;;;;12.20;3.65;;;18.20;99.90;;;;;;3537925;40;20083;-86
2021/06/22 21:28:03;;;;;;;8.93;3.57;;;18.10;99.90;;;;;;3543372;40;20038;-84
2021/06/22 21:30:33;;;;;;;8.73;3.40;;;18.10;99.90;;;;;;3563205;40;20321;-84
2021/06/22 21:33:03;;;;;;;9.52;3.30;;;18.00;99.90;;;;;;3547320;40;20059;-85
2021/06/22 21:35:33;;;;;;;10.15;4.38;;;18.00;99.90;;;;;;3557388;40;20311;-90
2021/06/22 21:38:01;;;;;;;8.55;3.92;;;18.00;99.90;;;;;;3558031;40;20060;-85
2021/06/22 21:40:32;;;;;;;6.28;3.30;;;17.90;99.90;;;;;;3558787;40;20038;-89
2021/06/22 21:43:03;;;;;;;6.60;3.42;;;17.90;99.90;;;;;;3558231;40;20027;-86
2021/06/22 21:45:34;;;;;;;10.60;3.75;;;17.90;99.90;;;;;;3626076;23;20066;-87
2021/06/22 21:48:01;;;;;;;8.73;3.42;;;18.00;99.90;;;;;;3549134;40;20083;-88
2021/06/22 21:50:29;;;;;;;8.93;3.03;;;17.90;99.90;;;;;;3545334;40;20112;-88
2021/06/22 21:52:57;;;;;;;6.97;3.53;;;17.90;99.90;;;;;;3561992;40;20619;-88
2021/06/22 21:55:25;;;;;;;8.80;4.10;;;17.90;99.90;;;;;;3555090;40;20041;-87